createdAt,value
2022-08-08T00:01:17.377Z,29.30
2022-08-08T00:03:53.422Z,29.40
2022-08-08T00:06:36.735Z,29.30
2022-08-08T00:09:15.996Z,29.20
2022-08-08T00:12:09.437Z,29.10
2022-08-08T00:14:59.553Z,29.20
2022-08-08T00:17:58.541Z,29.10
2022-08-08T00:20:45.652Z,29.00
2022-08-08T00:23:43.393Z,28.90
2022-08-08T00:26:29.024Z,28.80
2022-08-08T00:29:08.033Z,28.80
2022-08-08T00:32:16.334Z,28.70
2022-08-08T00:35:05.415Z,28.70
2022-08-08T00:37:47.389Z,28.70
2022-08-08T00:41:14.516Z,28.50
2022-08-08T00:44:04.932Z,28.50
2022-08-08T00:47:19.353Z,28.60
2022-08-08T00:50:21.928Z,28.50
2022-08-08T00:52:58.583Z,28.40
2022-08-08T00:56:11.292Z,28.50
2022-08-08T00:59:44.571Z,28.50
2022-08-08T01:03:58.734Z,28.40
2022-08-08T01:06:16.826Z,28.40
2022-08-08T01:09:35.710Z,28.50
2022-08-08T01:12:52.180Z,28.40
2022-08-08T01:15:47.305Z,28.20
2022-08-08T01:19:13.841Z,28.10
2022-08-08T01:22:35.173Z,28.20
2022-08-08T01:25:40.830Z,28.20
2022-08-08T01:28:36.806Z,28.20
2022-08-08T01:32:13.819Z,28.30
2022-08-08T01:35:11.095Z,28.30
2022-08-08T01:38:11.498Z,28.40
2022-08-08T01:41:00.232Z,28.30
2022-08-08T01:43:40.732Z,28.50
2022-08-08T01:46:43.633Z,28.50
2022-08-08T01:49:43.694Z,28.50
2022-08-08T01:52:43.804Z,28.60
2022-08-08T01:56:29.294Z,28.60
2022-08-08T01:58:38.691Z,28.50
2022-08-08T02:01:20.627Z,28.50
2022-08-08T02:04:04.264Z,28.40
2022-08-08T02:07:01.478Z,28.20
2022-08-08T02:10:02.720Z,27.90
2022-08-08T02:12:52.490Z,27.70
2022-08-08T02:15:34.648Z,27.60
2022-08-08T02:18:11.690Z,27.50
2022-08-08T02:21:13.267Z,27.70
2022-08-08T02:23:46.963Z,27.80
2022-08-08T02:26:25.650Z,27.80
2022-08-08T02:29:21.818Z,27.90
2022-08-08T02:32:07.342Z,28.00
2022-08-08T02:35:07.988Z,28.00
2022-08-08T02:38:09.168Z,28.20
2022-08-08T02:40:48.903Z,28.30
2022-08-08T02:44:35.561Z,28.40
2022-08-08T02:46:50.505Z,28.50
2022-08-08T02:50:02.617Z,28.70
2022-08-08T02:52:50.740Z,28.70
2022-08-08T02:55:59.742Z,28.80
2022-08-08T02:59:02.439Z,28.80
2022-08-08T03:02:04.861Z,28.80
2022-08-08T03:05:19.677Z,28.80
2022-08-08T03:08:30.896Z,28.70
2022-08-08T03:11:59.870Z,28.50
2022-08-08T03:15:57.397Z,28.30
2022-08-08T03:18:00.160Z,28.20
2022-08-08T03:20:51.903Z,28.20
2022-08-08T03:23:30.530Z,28.20
2022-08-08T03:26:09.653Z,28.20
2022-08-08T03:28:44.891Z,28.20
2022-08-08T03:32:05.906Z,28.20
2022-08-08T03:34:27.995Z,28.30
2022-08-08T03:36:56.779Z,28.40
2022-08-08T03:39:27.706Z,28.40
2022-08-08T03:42:27.023Z,28.40
2022-08-08T03:44:47.835Z,28.40
2022-08-08T03:47:23.759Z,28.40
2022-08-08T03:50:00.793Z,28.40
2022-08-08T03:52:44.560Z,28.30
2022-08-08T03:55:56.054Z,28.30
2022-08-08T03:58:35.512Z,28.20
2022-08-08T04:01:23.633Z,28.30
2022-08-08T04:03:59.734Z,28.10
2022-08-08T04:06:37.426Z,27.90
2022-08-08T04:09:11.275Z,27.90
2022-08-08T04:11:58.165Z,27.80
2022-08-08T04:14:37.046Z,27.80
2022-08-08T04:17:15.665Z,27.80
2022-08-08T04:19:52.263Z,27.80
2022-08-08T04:22:24.214Z,27.80
2022-08-08T04:24:58.231Z,27.70
2022-08-08T04:28:01.498Z,27.80
2022-08-08T04:30:19.588Z,27.80
2022-08-08T04:32:53.190Z,27.80
2022-08-08T04:35:34.497Z,27.80
2022-08-08T04:38:10.014Z,27.90
2022-08-08T04:40:53.857Z,28.10
2022-08-08T04:43:25.616Z,28.30
2022-08-08T04:46:02.768Z,28.40
2022-08-08T04:48:32.521Z,28.40
2022-08-08T04:51:01.950Z,28.40
2022-08-08T04:54:27.250Z,28.40
2022-08-08T04:56:23.405Z,28.40
2022-08-08T04:58:53.372Z,28.50
2022-08-08T05:01:22.870Z,28.30
2022-08-08T05:04:11.360Z,28.20
2022-08-08T05:06:45.437Z,28.10
2022-08-08T05:09:15.686Z,28.20
2022-08-08T05:11:47.802Z,28.30
2022-08-08T05:14:29.050Z,28.30
2022-08-08T05:17:01.908Z,28.30
2022-08-08T05:20:09.938Z,28.40
2022-08-08T05:22:32.529Z,28.70
2022-08-08T05:25:02.763Z,29.20
2022-08-08T05:27:33.075Z,29.80
2022-08-08T05:30:04.927Z,30.00
2022-08-08T05:32:43.390Z,30.00
2022-08-08T05:35:15.784Z,29.80
2022-08-08T05:37:52.707Z,29.60
2022-08-08T05:40:28.356Z,29.60
2022-08-08T05:43:38.885Z,29.50
2022-08-08T05:46:02.961Z,29.50
2022-08-08T05:48:37.599Z,29.50
2022-08-08T05:51:14.445Z,29.80
2022-08-08T05:54:24.920Z,30.80
2022-08-08T05:56:48.226Z,31.40
2022-08-08T06:00:01.056Z,31.10
2022-08-08T06:02:38.953Z,30.80
2022-08-08T06:05:34.381Z,30.50
2022-08-08T06:08:03.014Z,30.40
2022-08-08T06:10:43.178Z,30.40
2022-08-08T06:13:15.900Z,30.50
2022-08-08T06:15:55.071Z,30.50
2022-08-08T06:18:39.272Z,30.60
2022-08-08T06:21:27.857Z,30.80
2022-08-08T06:24:04.625Z,30.90
2022-08-08T06:26:50.298Z,30.90
2022-08-08T06:29:56.532Z,31.00
2022-08-08T06:32:27.961Z,31.10
2022-08-08T06:35:30.675Z,31.20
2022-08-08T06:38:01.554Z,31.30
2022-08-08T06:40:36.833Z,31.40
2022-08-08T06:43:19.856Z,31.50
2022-08-08T06:46:00.714Z,31.60
2022-08-08T06:48:31.970Z,31.60
2022-08-08T06:51:08.482Z,31.70
2022-08-08T06:53:50.716Z,31.80
2022-08-08T06:56:26.936Z,31.80
2022-08-08T06:58:56.144Z,31.90
2022-08-08T07:02:27.405Z,31.80
2022-08-08T07:04:40.394Z,31.90
2022-08-08T07:07:22.409Z,31.90
2022-08-08T07:10:00.873Z,32.00
2022-08-08T07:12:43.040Z,32.00
2022-08-08T07:15:32.021Z,32.00
2022-08-08T07:18:35.734Z,32.10
2022-08-08T07:21:05.135Z,32.10
2022-08-08T07:24:01.064Z,32.00
2022-08-08T07:26:37.956Z,32.00
2022-08-08T07:29:20.661Z,32.00
2022-08-08T07:31:59.269Z,32.00
2022-08-08T07:34:32.416Z,32.00
2022-08-08T07:37:12.010Z,32.00
2022-08-08T07:39:57.697Z,32.10
2022-08-08T07:42:34.738Z,32.10
2022-08-08T07:45:09.800Z,32.20
2022-08-08T07:47:42.682Z,32.00
2022-08-08T07:50:23.456Z,32.20
2022-08-08T07:52:57.775Z,32.30
2022-08-08T07:55:36.476Z,32.40
2022-08-08T07:58:17.724Z,32.50
2022-08-08T08:00:52.728Z,32.60
2022-08-08T08:03:41.436Z,32.60
2022-08-08T08:06:16.436Z,32.70
2022-08-08T08:08:52.467Z,32.90
2022-08-08T08:11:34.016Z,33.00
2022-08-08T08:14:30.092Z,33.10
2022-08-08T08:17:00.643Z,33.20
2022-08-08T08:19:45.550Z,33.20
2022-08-08T08:22:16.329Z,33.30
2022-08-08T08:25:07.696Z,33.30
2022-08-08T08:27:46.565Z,33.30
2022-08-08T08:30:16.749Z,33.20
2022-08-08T08:32:51.017Z,33.20
2022-08-08T08:35:29.943Z,33.20
2022-08-08T08:38:15.675Z,33.20
2022-08-08T08:40:48.508Z,33.20
2022-08-08T08:43:26.877Z,33.30
2022-08-08T08:46:03.627Z,33.20
2022-08-08T08:48:36.019Z,33.30
2022-08-08T08:51:06.273Z,33.30
2022-08-08T08:53:56.589Z,33.40
2022-08-08T08:56:30.796Z,33.30
2022-08-08T08:59:15.421Z,33.20
2022-08-08T09:01:52.791Z,33.30
2022-08-08T09:04:31.576Z,33.50
2022-08-08T09:07:13.821Z,33.80
2022-08-08T09:09:57.472Z,33.80
2022-08-08T09:12:35.847Z,33.80
2022-08-08T09:15:08.902Z,33.80
2022-08-08T09:17:55.661Z,33.80
2022-08-08T09:21:59.701Z,33.90
2022-08-08T09:23:25.407Z,34.10
2022-08-08T09:26:03.124Z,34.20
2022-08-08T09:28:40.773Z,34.40
2022-08-08T09:31:28.982Z,34.20
2022-08-08T09:34:31.633Z,34.30
2022-08-08T09:37:46.232Z,34.40
2022-08-08T09:40:01.713Z,34.20
2022-08-08T09:42:44.362Z,34.20
2022-08-08T09:46:01.268Z,34.20
2022-08-08T09:48:21.053Z,34.30
2022-08-08T09:50:56.107Z,34.50
2022-08-08T09:53:59.088Z,34.60
2022-08-08T09:56:25.486Z,34.70
2022-08-08T09:59:19.938Z,34.90
2022-08-08T10:01:59.120Z,35.10
2022-08-08T10:04:39.659Z,35.10
2022-08-08T10:07:15.892Z,35.20
2022-08-08T10:09:59.687Z,35.20
2022-08-08T10:12:53.982Z,35.10
2022-08-08T10:15:29.295Z,34.70
2022-08-08T10:18:09.242Z,34.70
2022-08-08T10:20:57.881Z,34.80
2022-08-08T10:23:45.085Z,35.00
2022-08-08T10:26:29.919Z,35.10
2022-08-08T10:29:05.795Z,35.20
2022-08-08T10:31:54.995Z,35.10
2022-08-08T10:34:27.498Z,34.90
2022-08-08T10:37:00.260Z,35.00
2022-08-08T10:39:43.126Z,35.10
2022-08-08T10:42:27.226Z,35.00
2022-08-08T10:45:02.507Z,34.80
2022-08-08T10:47:43.965Z,34.60
2022-08-08T10:50:17.790Z,34.30
2022-08-08T10:52:47.816Z,33.90
2022-08-08T10:55:41.700Z,33.80
2022-08-08T10:58:09.167Z,33.80
2022-08-08T11:00:52.534Z,34.20
2022-08-08T11:03:36.730Z,34.60
2022-08-08T11:06:14.067Z,34.70
2022-08-08T11:08:50.247Z,35.30
2022-08-08T11:11:32.262Z,35.60
2022-08-08T11:14:16.327Z,35.90
2022-08-08T11:16:47.404Z,35.80
2022-08-08T11:19:18.906Z,35.70
2022-08-08T11:21:54.143Z,36.00
2022-08-08T11:24:29.109Z,36.20
2022-08-08T11:27:10.405Z,36.40
2022-08-08T11:29:58.328Z,36.50
2022-08-08T11:32:41.160Z,36.10
2022-08-08T11:35:29.327Z,36.00
2022-08-08T11:38:35.502Z,36.10
2022-08-08T11:40:53.071Z,36.20
2022-08-08T11:43:23.820Z,36.20
2022-08-08T11:46:09.634Z,36.30
2022-08-08T11:48:47.330Z,36.60
2022-08-08T11:51:39.571Z,36.90
2022-08-08T11:54:27.443Z,37.10
2022-08-08T11:57:16.718Z,36.80
2022-08-08T12:00:01.418Z,36.80
2022-08-08T12:02:51.376Z,36.90
2022-08-08T12:05:22.750Z,37.10
2022-08-08T12:07:54.005Z,37.10
2022-08-08T12:10:26.568Z,37.00
2022-08-08T12:13:05.433Z,37.00
2022-08-08T12:15:41.857Z,37.20
2022-08-08T12:18:18.006Z,37.10
2022-08-08T12:20:50.947Z,37.10
2022-08-08T12:23:43.544Z,37.10
2022-08-08T12:26:28.440Z,37.20
2022-08-08T12:29:21.624Z,37.10
2022-08-08T12:32:02.999Z,37.20
2022-08-08T12:34:39.719Z,37.30
2022-08-08T12:37:12.264Z,37.40
2022-08-08T12:40:00.256Z,37.30
2022-08-08T12:42:33.765Z,37.30
2022-08-08T12:45:59.228Z,37.10
2022-08-08T12:48:10.307Z,37.10
2022-08-08T12:50:49.503Z,37.30
2022-08-08T12:53:24.671Z,37.50
2022-08-08T12:56:17.931Z,37.60
2022-08-08T12:58:51.781Z,37.50
2022-08-08T13:01:29.550Z,37.10
2022-08-08T13:04:18.528Z,36.80
2022-08-08T13:07:02.758Z,36.40
2022-08-08T13:09:43.230Z,36.10
2022-08-08T13:12:32.872Z,35.90
2022-08-08T13:15:03.664Z,35.80
2022-08-08T13:18:09.367Z,35.90
2022-08-08T13:20:27.110Z,36.30
2022-08-08T13:25:48.897Z,36.80
2022-08-08T13:28:32.157Z,37.00
2022-08-08T13:31:04.171Z,36.70
2022-08-08T13:33:42.652Z,36.30
2022-08-08T13:36:12.227Z,35.90
2022-08-08T13:38:42.447Z,35.60
2022-08-08T13:41:15.993Z,35.00
2022-08-08T13:43:50.647Z,34.30
2022-08-08T13:46:26.533Z,33.30
2022-08-08T13:49:11.719Z,32.80
2022-08-08T13:51:55.281Z,32.90
2022-08-08T13:54:29.304Z,32.90
2022-08-08T13:57:13.035Z,33.10
2022-08-08T13:59:47.849Z,33.30
2022-08-08T14:02:21.672Z,33.50
2022-08-08T14:05:04.803Z,33.50
2022-08-08T14:07:42.249Z,33.80
2022-08-08T14:10:17.566Z,34.60
2022-08-08T14:13:06.278Z,35.40
2022-08-08T14:15:46.295Z,35.70
2022-08-08T14:18:34.494Z,36.20
2022-08-08T14:21:15.032Z,36.60
2022-08-08T14:24:07.967Z,36.40
2022-08-08T14:26:43.221Z,35.90
2022-08-08T14:29:28.529Z,35.80
2022-08-08T14:32:09.164Z,35.70
2022-08-08T14:34:42.372Z,35.30
2022-08-08T14:37:17.606Z,35.60
2022-08-08T14:39:53.778Z,35.40
2022-08-08T14:42:32.095Z,35.80
2022-08-08T14:45:03.547Z,35.00
2022-08-08T14:47:44.679Z,34.20
2022-08-08T14:50:38.123Z,33.60
2022-08-08T14:53:14.501Z,33.60
2022-08-08T14:55:43.871Z,33.90
2022-08-08T14:58:16.556Z,34.20
2022-08-08T15:00:49.699Z,33.90
2022-08-08T15:03:18.817Z,33.60
2022-08-08T15:05:54.031Z,33.30
2022-08-08T15:08:35.484Z,33.20
2022-08-08T15:11:11.611Z,33.70
2022-08-08T15:14:00.703Z,33.90
2022-08-08T15:16:34.455Z,33.90
2022-08-08T15:19:05.117Z,33.80
2022-08-08T15:21:33.830Z,33.80
2022-08-08T15:24:13.856Z,34.30
2022-08-08T15:26:52.629Z,34.50
2022-08-08T15:29:24.231Z,34.30
2022-08-08T15:32:17.799Z,33.90
2022-08-08T15:34:42.101Z,33.50
2022-08-08T15:37:12.942Z,33.40
2022-08-08T15:39:43.277Z,33.30
2022-08-08T15:42:18.199Z,33.20
2022-08-08T15:45:00.767Z,33.10
2022-08-08T15:47:31.224Z,33.10
2022-08-08T15:50:02.294Z,33.10
2022-08-08T15:52:33.060Z,33.10
2022-08-08T15:55:04.461Z,33.10
2022-08-08T15:57:35.667Z,33.00
2022-08-08T16:00:27.117Z,33.00
2022-08-08T16:02:57.884Z,33.00
2022-08-08T16:05:36.014Z,33.00
2022-08-08T16:08:20.202Z,33.00
2022-08-08T16:13:10.646Z,32.90
2022-08-08T16:13:45.146Z,32.70
2022-08-08T16:16:17.626Z,32.60
2022-08-08T16:18:53.494Z,32.60
2022-08-08T16:21:28.973Z,32.70
2022-08-08T16:24:00.567Z,32.90
2022-08-08T16:26:34.549Z,33.00
2022-08-08T16:29:09.299Z,32.80
2022-08-08T16:31:49.159Z,32.90
2022-08-08T16:34:24.711Z,33.00
2022-08-08T16:36:53.737Z,32.80
2022-08-08T16:39:54.934Z,32.60
2022-08-08T16:42:18.147Z,32.40
2022-08-08T16:44:55.209Z,32.40
2022-08-08T16:47:41.355Z,32.30
2022-08-08T16:50:15.314Z,32.20
2022-08-08T16:55:04.277Z,32.10
2022-08-08T16:55:52.336Z,32.00
2022-08-08T16:58:32.685Z,31.90
2022-08-08T17:01:05.486Z,31.90
2022-08-08T17:03:58.898Z,31.80
2022-08-08T17:06:37.628Z,31.80
2022-08-08T17:09:14.698Z,31.80
2022-08-08T17:11:49.162Z,31.80
2022-08-08T17:14:27.269Z,31.80
2022-08-08T17:17:04.493Z,31.70
2022-08-08T17:19:40.813Z,31.80
2022-08-08T17:22:10.617Z,31.80
2022-08-08T17:24:41.202Z,31.70
2022-08-08T17:27:10.438Z,31.60
2022-08-08T17:29:43.777Z,31.40
2022-08-08T17:32:28.975Z,31.30
2022-08-08T17:35:54.439Z,31.30
2022-08-08T17:37:53.364Z,31.00
2022-08-08T17:40:22.917Z,31.00
2022-08-08T17:42:52.045Z,31.10
2022-08-08T17:45:23.979Z,31.10
2022-08-08T17:47:54.923Z,31.10
2022-08-08T17:50:25.296Z,31.10
2022-08-08T17:52:57.577Z,31.00
2022-08-08T17:56:06.789Z,31.00
2022-08-08T17:58:16.196Z,31.00
2022-08-08T18:00:47.498Z,31.10
2022-08-08T18:03:23.170Z,30.90
2022-08-08T18:05:51.781Z,30.80
2022-08-08T18:08:24.705Z,30.70
2022-08-08T18:11:15.030Z,30.50
2022-08-08T18:13:47.153Z,30.50
2022-08-08T18:16:22.863Z,30.50
2022-08-08T18:18:57.400Z,30.40
2022-08-08T18:21:59.146Z,30.40
2022-08-08T18:24:21.095Z,30.30
2022-08-08T18:26:54.671Z,30.30
2022-08-08T18:29:30.005Z,30.20
2022-08-08T18:32:04.200Z,30.20
2022-08-08T18:34:33.932Z,30.10
2022-08-08T18:37:08.493Z,30.10
2022-08-08T18:39:41.004Z,30.10
2022-08-08T18:42:15.871Z,30.10
2022-08-08T18:44:55.784Z,30.10
2022-08-08T18:47:33.407Z,30.00
2022-08-08T18:50:03.075Z,30.00
2022-08-08T18:52:34.924Z,30.00
2022-08-08T18:55:10.777Z,29.90
2022-08-08T18:57:45.466Z,30.00
2022-08-08T19:00:20.184Z,30.00
2022-08-08T19:02:55.176Z,30.00
2022-08-08T19:05:34.560Z,29.90
2022-08-08T19:08:25.450Z,29.90
2022-08-08T19:10:59.105Z,29.90
2022-08-08T19:13:52.861Z,29.90
2022-08-08T19:16:19.070Z,29.80
2022-08-08T19:19:01.956Z,29.60
2022-08-08T19:21:32.975Z,29.50
2022-08-08T19:24:05.521Z,29.40
2022-08-08T19:26:37.434Z,29.40
2022-08-08T19:29:06.866Z,29.30
2022-08-08T19:31:36.211Z,29.20
2022-08-08T19:34:30.063Z,29.20
2022-08-08T19:36:58.930Z,29.20
2022-08-08T19:39:35.480Z,29.10
2022-08-08T19:42:06.905Z,29.10
2022-08-08T19:44:45.843Z,29.20
2022-08-08T19:47:24.579Z,29.20
2022-08-08T19:50:04.361Z,29.00
2022-08-08T19:52:36.826Z,29.00
2022-08-08T19:55:11.481Z,28.90
2022-08-08T19:57:42.351Z,28.90
2022-08-08T20:00:29.172Z,28.90
2022-08-08T20:03:01.323Z,28.90
2022-08-08T20:06:14.475Z,28.80
2022-08-08T20:08:33.868Z,28.70
2022-08-08T20:11:03.398Z,28.70
2022-08-08T20:14:32.311Z,28.60
2022-08-08T20:16:21.651Z,28.60
2022-08-08T20:18:59.126Z,28.60
2022-08-08T20:21:37.067Z,28.60
2022-08-08T20:24:07.931Z,28.60
2022-08-08T20:26:38.186Z,28.50
2022-08-08T20:29:08.679Z,28.30
2022-08-08T20:32:07.389Z,28.30
2022-08-08T20:34:28.987Z,28.20
2022-08-08T20:37:02.501Z,28.20
2022-08-08T20:39:38.935Z,28.40
2022-08-08T20:42:10.347Z,28.20
2022-08-08T20:44:38.936Z,28.20
2022-08-08T20:47:22.807Z,28.20
2022-08-08T20:49:54.589Z,28.20
2022-08-08T20:52:30.553Z,28.20
2022-08-08T20:54:59.493Z,28.20
2022-08-08T20:57:28.856Z,28.10
2022-08-08T20:59:59.080Z,28.00
2022-08-08T21:02:28.205Z,28.00
2022-08-08T21:05:01.150Z,28.00
2022-08-08T21:08:33.338Z,28.10
2022-08-08T21:10:21.664Z,28.00
2022-08-08T21:12:57.073Z,27.90
2022-08-08T21:16:05.483Z,27.90
2022-08-08T21:18:14.829Z,28.00
2022-08-08T21:20:43.504Z,28.00
2022-08-08T21:23:25.121Z,28.10
2022-08-08T21:26:11.171Z,27.90
2022-08-08T21:28:39.980Z,27.90
2022-08-08T21:31:22.854Z,27.90
2022-08-08T21:33:52.399Z,27.90
2022-08-08T21:36:28.930Z,27.90
2022-08-08T21:39:00.378Z,27.80
2022-08-08T21:41:43.291Z,27.70
2022-08-08T21:44:22.570Z,27.70
2022-08-08T21:48:21.280Z,27.80
2022-08-08T21:49:40.723Z,27.80
2022-08-08T21:54:31.357Z,27.80
2022-08-08T21:55:24.042Z,27.80
2022-08-08T21:58:04.081Z,27.90
2022-08-08T22:00:40.540Z,27.70
2022-08-08T22:03:11.208Z,27.70
2022-08-08T22:05:48.384Z,27.70
2022-08-08T22:08:24.006Z,27.70
2022-08-08T22:10:54.966Z,27.60
2022-08-08T22:13:23.724Z,27.50
2022-08-08T22:16:00.024Z,27.50
2022-08-08T22:18:31.193Z,27.40
2022-08-08T22:21:01.671Z,27.40
2022-08-08T22:23:43.433Z,27.40
2022-08-08T22:26:29.796Z,27.40
2022-08-08T22:29:14.680Z,27.40
2022-08-08T22:31:58.474Z,27.60
2022-08-08T22:34:39.905Z,27.60
2022-08-08T22:37:27.646Z,27.40
2022-08-08T22:40:00.992Z,27.30
2022-08-08T22:42:34.446Z,27.30
2022-08-08T22:45:05.337Z,27.30
2022-08-08T22:47:46.880Z,27.20
2022-08-08T22:50:27.435Z,27.30
2022-08-08T22:54:27.722Z,27.30
2022-08-08T22:55:57.824Z,27.10
2022-08-08T22:58:33.905Z,26.90
2022-08-08T23:02:01.070Z,26.80
2022-08-08T23:03:55.086Z,27.00
2022-08-08T23:06:25.573Z,27.00
2022-08-08T23:08:58.252Z,26.80
2022-08-08T23:11:30.983Z,26.70
2022-08-08T23:14:20.993Z,26.70
2022-08-08T23:16:59.104Z,26.80
2022-08-08T23:19:30.706Z,26.70
2022-08-08T23:22:00.827Z,26.60
2022-08-08T23:24:36.859Z,26.40
2022-08-08T23:27:37.910Z,26.30
2022-08-08T23:30:03.141Z,26.30
2022-08-08T23:32:33.205Z,26.40
2022-08-08T23:35:01.982Z,26.40
2022-08-08T23:38:00.879Z,26.50
2022-08-08T23:40:25.768Z,26.50
2022-08-08T23:42:54.323Z,26.40
2022-08-08T23:49:03.021Z,26.40
2022-08-08T23:49:07.123Z,26.40
2022-08-08T23:51:02.872Z,26.40
2022-08-08T23:54:06.137Z,26.40
2022-08-08T23:56:24.123Z,26.30
2022-08-08T23:59:00.873Z,26.10
